Time;durP1;ratioP1;P1;durP2;ratioP2;P2;SDS_P1;SDS_P2;PMS_P1;PMS_P2;Temp;Humidity;BMP_temperature;BMP_pressure;BME280_temperature;BME280_humidity;BME280_pressure;Samples;Min_cycle;Max_cycle;Signal;HPM_P1;HPM_P2
2022/10/17 00:01:13;;;;;;;12.20;3.67;;;;;;;;;;5070307;28;20067;-65
2022/10/17 00:03:39;;;;;;;8.18;3.90;;;;;;;;;;5070537;28;20343;-65
2022/10/17 00:06:13;;;;;;;15.88;4.57;;;;;;;;;;5069967;28;20036;-65
2022/10/17 00:08:39;;;;;;;9.05;3.90;;;;;;;;;;5069906;28;20465;-65
2022/10/17 00:11:12;;;;;;;9.35;3.95;;;;;;;;;;5069653;28;20115;-65
2022/10/17 00:13:38;;;;;;;12.65;4.70;;;;;;;;;;5069457;28;20115;-65
2022/10/17 00:16:04;;;;;;;12.10;4.63;;;;;;;;;;5069827;28;20123;-65
2022/10/17 00:18:31;;;;;;;14.50;4.88;;;;;;;;;;5069931;28;20052;-65
2022/10/17 00:20:57;;;;;;;11.23;4.60;;;;;;;;;;5069610;28;20040;-64
2022/10/17 00:23:26;;;;;;;16.48;5.10;;;;;;;;;;5069875;28;20144;-64
2022/10/17 00:25:59;;;;;;;10.75;4.57;;;;;;;;;;5069801;28;20506;-64
2022/10/17 00:28:25;;;;;;;13.23;5.25;;;;;;;;;;5069188;28;20044;-64
2022/10/17 00:30:55;;;;;;;13.05;4.80;;;;;;;;;;5069857;28;20645;-64
2022/10/17 00:33:21;;;;;;;8.48;4.65;;;;;;;;;;5068307;28;20049;-64
2022/10/17 00:35:47;;;;;;;11.23;5.00;;;;;;;;;;5068958;28;20051;-64
2022/10/17 00:38:13;;;;;;;11.07;5.00;;;;;;;;;;5069580;28;20629;-64
2022/10/17 00:40:39;;;;;;;9.02;5.32;;;;;;;;;;5069938;28;20365;-64
2022/10/17 00:43:10;;;;;;;13.13;5.25;;;;;;;;;;5069227;28;20041;-64
2022/10/17 00:45:36;;;;;;;10.40;5.50;;;;;;;;;;5069843;28;20203;-64
2022/10/17 00:48:04;;;;;;;11.38;5.47;;;;;;;;;;5069689;28;20761;-64
2022/10/17 00:50:30;;;;;;;11.80;4.68;;;;;;;;;;5067497;28;20577;-64
2022/10/17 00:52:58;;;;;;;16.75;4.75;;;;;;;;;;5069710;28;20047;-64
2022/10/17 00:55:29;;;;;;;8.48;5.50;;;;;;;;;;5069763;28;20040;-64
2022/10/17 00:57:56;;;;;;;11.25;5.55;;;;;;;;;;5069107;28;20068;-64
2022/10/17 01:00:23;;;;;;;8.95;4.82;;;;;;;;;;5069666;28;20040;-64
2022/10/17 01:02:49;;;;;;;9.40;5.18;;;;;;;;;;5069408;28;20036;-64
2022/10/17 01:05:16;;;;;;;13.10;5.65;;;;;;;;;;5069001;28;20103;-64
2022/10/17 01:07:42;;;;;;;10.85;5.80;;;;;;;;;;5069199;28;20040;-64
2022/10/17 01:10:08;;;;;;;7.65;5.35;;;;;;;;;;5069409;28;20068;-65
2022/10/17 01:12:46;;;;;;;10.25;5.30;;;;;;;;;;5069249;28;20140;-65
2022/10/17 01:15:22;;;;;;;11.13;6.05;;;;;;;;;;5069307;28;20479;-65
2022/10/17 01:18:01;;;;;;;10.93;5.90;;;;;;;;;;5069254;28;20051;-65
2022/10/17 01:20:46;;;;;;;11.27;5.75;;;;;;;;;;5069181;28;20032;-65
2022/10/17 01:23:18;;;;;;;9.02;5.07;;;;;;;;;;5069183;28;20046;-65
2022/10/17 01:25:54;;;;;;;13.75;6.03;;;;;;;;;;5068647;28;20040;-65
2022/10/17 01:28:39;;;;;;;10.70;5.63;;;;;;;;;;5069003;28;20131;-65
2022/10/17 01:31:05;;;;;;;10.80;5.53;;;;;;;;;;5069348;28;20040;-65
2022/10/17 01:33:50;;;;;;;9.90;5.90;;;;;;;;;;5068840;28;20470;-65
2022/10/17 01:36:42;;;;;;;12.88;6.25;;;;;;;;;;5069163;28;20043;-65
2022/10/17 01:39:08;;;;;;;9.45;5.65;;;;;;;;;;5067555;28;20053;-64
2022/10/17 01:41:38;;;;;;;9.27;5.72;;;;;;;;;;5068799;28;20325;-64
2022/10/17 01:44:09;;;;;;;9.75;6.40;;;;;;;;;;5069015;28;20177;-64
2022/10/17 01:46:37;;;;;;;9.07;6.35;;;;;;;;;;5069263;28;20041;-64
2022/10/17 01:49:04;;;;;;;9.75;6.20;;;;;;;;;;5070660;28;20455;-64
2022/10/17 01:51:33;;;;;;;9.32;6.18;;;;;;;;;;5072980;28;20048;-64
2022/10/17 01:54:06;;;;;;;8.52;6.10;;;;;;;;;;5072918;28;20131;-64
2022/10/17 01:56:33;;;;;;;12.88;6.53;;;;;;;;;;5070952;28;20045;-64
2022/10/17 01:59:06;;;;;;;10.65;6.32;;;;;;;;;;5072905;28;20170;-64
2022/10/17 02:01:32;;;;;;;8.95;6.63;;;;;;;;;;5072386;28;20036;-64
2022/10/17 02:03:59;;;;;;;9.50;6.53;;;;;;;;;;5072083;28;20051;-64
2022/10/17 02:06:25;;;;;;;8.38;6.30;;;;;;;;;;5072659;28;20291;-64
2022/10/17 02:08:51;;;;;;;9.70;6.95;;;;;;;;;;5072396;28;20158;-64
2022/10/17 02:11:26;;;;;;;13.13;7.30;;;;;;;;;;5071887;28;20044;-65
2022/10/17 02:13:55;;;;;;;11.40;6.22;;;;;;;;;;5072422;28;20106;-65
2022/10/17 02:16:21;;;;;;;9.77;7.20;;;;;;;;;;5070770;28;20054;-65
2022/10/17 02:18:58;;;;;;;10.27;7.60;;;;;;;;;;5071996;28;20479;-65
2022/10/17 02:21:31;;;;;;;13.10;6.70;;;;;;;;;;5070734;28;20132;-65
2022/10/17 02:24:05;;;;;;;12.25;7.78;;;;;;;;;;5072206;28;20044;-65
2022/10/17 02:26:42;;;;;;;13.52;7.30;;;;;;;;;;5071589;28;20538;-65
2022/10/17 02:29:28;;;;;;;12.52;7.68;;;;;;;;;;5071803;28;20044;-64
2022/10/17 02:31:59;;;;;;;10.90;7.93;;;;;;;;;;5071884;28;20552;-64
2022/10/17 02:34:30;;;;;;;19.10;8.30;;;;;;;;;;5072245;28;20041;-65
2022/10/17 02:36:59;;;;;;;12.90;8.32;;;;;;;;;;5072150;28;20038;-65
2022/10/17 02:39:26;;;;;;;14.77;8.40;;;;;;;;;;5071754;28;20502;-65
2022/10/17 02:41:53;;;;;;;11.63;8.38;;;;;;;;;;5072004;28;20037;-65
2022/10/17 02:44:19;;;;;;;11.00;9.10;;;;;;;;;;5071954;28;20120;-65
2022/10/17 02:46:49;;;;;;;13.52;9.45;;;;;;;;;;5071827;28;20040;-65
2022/10/17 02:49:17;;;;;;;12.90;9.38;;;;;;;;;;5070536;28;20478;-65
2022/10/17 02:51:56;;;;;;;18.20;11.20;;;;;;;;;;5071819;28;20437;-65
2022/10/17 02:54:27;;;;;;;11.02;9.40;;;;;;;;;;5071186;28;20036;-65
2022/10/17 02:57:02;;;;;;;12.98;9.98;;;;;;;;;;5071674;28;20446;-65
2022/10/17 02:59:29;;;;;;;14.25;10.40;;;;;;;;;;5071484;28;20043;-65
2022/10/17 03:01:55;;;;;;;21.15;11.40;;;;;;;;;;5071353;28;20315;-65
2022/10/17 03:04:21;;;;;;;12.13;10.85;;;;;;;;;;5071446;28;20047;-65
2022/10/17 03:06:48;;;;;;;12.15;10.15;;;;;;;;;;5071489;28;20036;-65
2022/10/17 03:09:14;;;;;;;13.90;10.48;;;;;;;;;;5070978;28;20127;-64
2022/10/17 03:11:40;;;;;;;13.45;10.48;;;;;;;;;;5070952;28;20068;-64
2022/10/17 03:14:06;;;;;;;14.43;11.30;;;;;;;;;;5069721;28;20053;-64
2022/10/17 03:16:32;;;;;;;14.45;11.07;;;;;;;;;;5070876;28;20036;-64
2022/10/17 03:18:58;;;;;;;18.73;11.10;;;;;;;;;;5071351;28;20120;-64
2022/10/17 03:21:24;;;;;;;14.90;10.88;;;;;;;;;;5071181;28;20032;-64
2022/10/17 03:23:50;;;;;;;15.23;10.77;;;;;;;;;;5070595;28;20040;-64
2022/10/17 03:26:16;;;;;;;14.05;11.15;;;;;;;;;;5071099;28;20059;-64
2022/10/17 03:28:42;;;;;;;13.77;10.85;;;;;;;;;;5070973;28;20044;-64
2022/10/17 03:31:09;;;;;;;14.45;11.48;;;;;;;;;;5070946;28;20145;-64
2022/10/17 03:33:36;;;;;;;14.77;11.73;;;;;;;;;;5070871;28;20654;-64
2022/10/17 03:36:12;;;;;;;16.42;11.27;;;;;;;;;;5070914;28;20485;-64
2022/10/17 03:38:38;;;;;;;12.48;11.18;;;;;;;;;;5070450;28;20037;-64
2022/10/17 03:41:05;;;;;;;14.20;11.52;;;;;;;;;;5070897;28;20209;-65
2022/10/17 03:43:31;;;;;;;18.15;13.80;;;;;;;;;;5070677;28;20079;-65
2022/10/17 03:45:57;;;;;;;15.40;11.25;;;;;;;;;;5069257;28;20509;-65
2022/10/17 03:48:23;;;;;;;14.98;12.70;;;;;;;;;;5070682;28;20471;-65
2022/10/17 03:50:49;;;;;;;19.40;12.57;;;;;;;;;;5069398;28;20519;-65
2022/10/17 03:53:16;;;;;;;16.27;11.82;;;;;;;;;;5070637;28;20044;-65
2022/10/17 03:55:41;;;;;;;20.70;12.38;;;;;;;;;;5070247;28;20516;-64
2022/10/17 03:58:07;;;;;;;15.32;13.23;;;;;;;;;;5069145;28;20085;-64
2022/10/17 04:00:35;;;;;;;20.05;13.18;;;;;;;;;;5070394;28;20498;-64
2022/10/17 04:03:01;;;;;;;15.95;12.40;;;;;;;;;;5070052;28;20376;-65
2022/10/17 04:05:30;;;;;;;23.20;13.63;;;;;;;;;;5070440;28;20042;-65
2022/10/17 04:07:56;;;;;;;18.13;12.98;;;;;;;;;;5070534;28;20044;-65
2022/10/17 04:10:22;;;;;;;17.67;13.73;;;;;;;;;;5069869;28;20036;-64
2022/10/17 04:12:48;;;;;;;17.85;13.10;;;;;;;;;;5069395;28;20092;-64
2022/10/17 04:15:14;;;;;;;18.25;13.63;;;;;;;;;;5069839;28;20041;-64
2022/10/17 04:17:40;;;;;;;16.67;13.02;;;;;;;;;;5069746;28;20048;-64
2022/10/17 04:20:06;;;;;;;18.58;13.48;;;;;;;;;;5068641;28;20051;-64
2022/10/17 04:22:32;;;;;;;17.38;14.15;;;;;;;;;;5069995;28;20033;-64
2022/10/17 04:24:58;;;;;;;18.95;13.65;;;;;;;;;;5069606;28;20494;-64
2022/10/17 04:27:24;;;;;;;21.08;14.27;;;;;;;;;;5070333;28;20335;-64
2022/10/17 04:29:50;;;;;;;16.88;13.13;;;;;;;;;;5069893;28;20082;-64
2022/10/17 04:32:16;;;;;;;19.88;13.63;;;;;;;;;;5068256;28;20150;-64
2022/10/17 04:34:42;;;;;;;15.82;13.23;;;;;;;;;;5069808;28;20036;-64
2022/10/17 04:37:08;;;;;;;16.23;13.93;;;;;;;;;;5069684;28;20047;-64
2022/10/17 04:39:34;;;;;;;18.83;14.88;;;;;;;;;;5069735;28;20032;-64
2022/10/17 04:42:00;;;;;;;22.55;14.18;;;;;;;;;;5070590;28;20051;-64
2022/10/17 04:44:29;;;;;;;17.88;14.18;;;;;;;;;;5070973;28;20040;-64
2022/10/17 04:46:55;;;;;;;21.13;14.88;;;;;;;;;;5069354;28;20060;-64
2022/10/17 04:49:21;;;;;;;17.55;13.50;;;;;;;;;;5069593;28;20457;-64
2022/10/17 04:51:47;;;;;;;22.55;14.75;;;;;;;;;;5070888;28;20075;-64
2022/10/17 04:54:13;;;;;;;20.75;15.15;;;;;;;;;;5070319;28;20047;-64
2022/10/17 04:56:39;;;;;;;21.67;14.98;;;;;;;;;;5070594;28;20055;-64
2022/10/17 04:59:05;;;;;;;18.95;14.68;;;;;;;;;;5070038;28;20082;-64
2022/10/17 05:01:31;;;;;;;18.90;14.82;;;;;;;;;;5070090;28;20060;-65
2022/10/17 05:03:57;;;;;;;23.27;15.90;;;;;;;;;;5070465;28;20033;-64
2022/10/17 05:06:27;;;;;;;25.38;16.02;;;;;;;;;;5070474;28;20124;-64
2022/10/17 05:08:53;;;;;;;22.17;15.40;;;;;;;;;;5068685;28;20048;-64
2022/10/17 05:11:21;;;;;;;23.50;16.52;;;;;;;;;;5070454;28;20053;-64
2022/10/17 05:13:54;;;;;;;23.60;16.20;;;;;;;;;;5070406;28;20102;-64
2022/10/17 05:16:20;;;;;;;26.35;16.60;;;;;;;;;;5070381;28;20052;-64
2022/10/17 05:18:50;;;;;;;24.02;16.92;;;;;;;;;;5070655;28;20040;-64
2022/10/17 05:21:16;;;;;;;20.30;15.68;;;;;;;;;;5070774;28;20036;-65
2022/10/17 05:23:42;;;;;;;23.25;16.38;;;;;;;;;;5071551;28;20033;-65
2022/10/17 05:26:08;;;;;;;25.70;15.98;;;;;;;;;;5074633;28;20044;-65
2022/10/17 05:28:34;;;;;;;26.60;16.63;;;;;;;;;;5074629;28;20683;-65
2022/10/17 05:31:04;;;;;;;23.38;16.50;;;;;;;;;;5074225;28;20415;-65
2022/10/17 05:33:30;;;;;;;24.55;16.67;;;;;;;;;;5074531;28;20052;-65
2022/10/17 05:35:57;;;;;;;23.38;16.10;;;;;;;;;;5074113;28;20471;-64
2022/10/17 05:38:23;;;;;;;23.88;16.45;;;;;;;;;;5073355;28;20043;-65
2022/10/17 05:40:49;;;;;;;25.05;16.42;;;;;;;;;;5074260;28;20044;-65
2022/10/17 05:43:15;;;;;;;24.52;16.42;;;;;;;;;;5073470;28;20043;-65
2022/10/17 05:45:41;;;;;;;26.90;17.48;;;;;;;;;;5073748;28;20045;-65
2022/10/17 05:48:07;;;;;;;27.60;17.30;;;;;;;;;;5074296;28;20044;-65
2022/10/17 05:50:34;;;;;;;24.30;16.50;;;;;;;;;;5072980;28;20120;-62
2022/10/17 05:53:00;;;;;;;23.48;16.88;;;;;;;;;;5072905;28;20040;-62
2022/10/17 05:55:26;;;;;;;26.73;17.88;;;;;;;;;;5073034;28;20527;-62
2022/10/17 05:57:52;;;;;;;27.17;16.67;;;;;;;;;;5072389;28;20036;-63
2022/10/17 06:00:19;;;;;;;28.90;17.20;;;;;;;;;;5071462;28;20075;-63
2022/10/17 06:02:45;;;;;;;23.20;15.85;;;;;;;;;;5072897;28;20040;-64
2022/10/17 06:05:11;;;;;;;24.42;16.08;;;;;;;;;;5070347;28;20486;-63
2022/10/17 06:07:37;;;;;;;27.73;16.95;;;;;;;;;;5072934;28;20382;-64
2022/10/17 06:10:04;;;;;;;26.25;16.92;;;;;;;;;;5067084;28;20131;-64
2022/10/17 06:12:30;;;;;;;25.85;17.02;;;;;;;;;;5065316;28;20066;-65
2022/10/17 06:14:56;;;;;;;23.27;16.60;;;;;;;;;;5072040;28;20313;-65
2022/10/17 06:17:22;;;;;;;24.40;16.08;;;;;;;;;;5070080;28;20554;-64
2022/10/17 06:19:48;;;;;;;28.67;16.60;;;;;;;;;;5070614;28;20036;-65
2022/10/17 06:22:14;;;;;;;23.73;16.33;;;;;;;;;;5072014;28;20036;-66
2022/10/17 06:24:41;;;;;;;23.45;16.00;;;;;;;;;;5072166;28;20044;-66
2022/10/17 06:27:07;;;;;;;29.83;17.25;;;;;;;;;;5072236;28;20036;-66
2022/10/17 06:29:33;;;;;;;25.05;16.13;;;;;;;;;;5071672;28;20043;-65
2022/10/17 06:31:59;;;;;;;25.35;15.73;;;;;;;;;;5065573;28;20532;-64
2022/10/17 06:34:25;;;;;;;22.02;15.82;;;;;;;;;;5071561;28;20426;-64
2022/10/17 06:36:52;;;;;;;26.50;16.25;;;;;;;;;;5071333;28;20037;-62
2022/10/17 06:39:18;;;;;;;24.70;16.27;;;;;;;;;;5072519;28;20033;-65
2022/10/17 06:41:44;;;;;;;25.60;15.65;;;;;;;;;;5071336;28;20102;-64
2022/10/17 06:44:10;;;;;;;23.17;15.60;;;;;;;;;;5071961;28;20082;-64
2022/10/17 06:46:40;;;;;;;26.88;15.95;;;;;;;;;;5072328;28;20040;-65
2022/10/17 06:49:06;;;;;;;23.55;16.05;;;;;;;;;;5072146;28;20080;-63
2022/10/17 06:51:36;;;;;;;24.35;15.70;;;;;;;;;;5071231;28;20044;-66
2022/10/17 06:54:02;;;;;;;23.45;15.32;;;;;;;;;;5072028;28;20067;-66
2022/10/17 06:56:28;;;;;;;26.25;15.85;;;;;;;;;;5071627;28;20048;-66
2022/10/17 06:58:54;;;;;;;20.80;15.05;;;;;;;;;;5071190;28;20044;-64
2022/10/17 07:01:21;;;;;;;24.75;15.20;;;;;;;;;;5071952;28;20054;-64
2022/10/17 07:03:51;;;;;;;27.27;15.95;;;;;;;;;;5072302;28;20050;-64
2022/10/17 07:06:17;;;;;;;24.23;15.32;;;;;;;;;;5071484;28;20050;-64
2022/10/17 07:08:44;;;;;;;25.25;15.65;;;;;;;;;;5071035;28;20367;-64
2022/10/17 07:11:21;;;;;;;22.20;14.52;;;;;;;;;;5065197;28;20125;-66
2022/10/17 07:13:48;;;;;;;22.88;14.52;;;;;;;;;;5065579;28;20701;-67
2022/10/17 07:16:14;;;;;;;23.08;14.43;;;;;;;;;;5062876;28;20674;-66
2022/10/17 07:18:41;;;;;;;21.27;13.45;;;;;;;;;;5065532;28;20036;-70
2022/10/17 07:21:07;;;;;;;21.55;14.55;;;;;;;;;;5066935;28;20052;-66
2022/10/17 07:23:35;;;;;;;21.02;14.57;;;;;;;;;;5066083;28;20107;-69
2022/10/17 07:26:06;;;;;;;19.92;14.70;;;;;;;;;;5067325;28;20040;-68
2022/10/17 07:28:32;;;;;;;22.58;14.63;;;;;;;;;;5069942;28;20043;-66
2022/10/17 07:31:09;;;;;;;26.13;14.02;;;;;;;;;;5066403;28;20084;-65
2022/10/17 07:33:35;;;;;;;21.38;14.27;;;;;;;;;;5067310;28;20089;-66
2022/10/17 07:36:01;;;;;;;22.13;13.70;;;;;;;;;;5072251;28;20040;-66
2022/10/17 07:38:27;;;;;;;21.10;14.05;;;;;;;;;;5071114;28;20037;-66
2022/10/17 07:40:57;;;;;;;21.20;14.27;;;;;;;;;;5065770;28;20029;-66
2022/10/17 07:43:24;;;;;;;20.35;13.52;;;;;;;;;;5069615;28;20474;-66
2022/10/17 07:45:51;;;;;;;24.33;14.13;;;;;;;;;;5066779;28;20147;-66
2022/10/17 07:48:17;;;;;;;20.02;13.02;;;;;;;;;;5067973;28;20075;-61
2022/10/17 07:50:43;;;;;;;20.10;12.80;;;;;;;;;;5065503;28;20074;-61
2022/10/17 07:53:09;;;;;;;20.05;13.10;;;;;;;;;;5063627;28;20040;-61
2022/10/17 07:55:38;;;;;;;18.23;12.73;;;;;;;;;;5069600;28;20403;-64
2022/10/17 07:58:05;;;;;;;21.08;12.50;;;;;;;;;;5067192;28;20032;-63
2022/10/17 08:00:31;;;;;;;18.55;11.75;;;;;;;;;;5064120;28;20047;-62
2022/10/17 08:02:57;;;;;;;20.15;12.48;;;;;;;;;;5068935;28;20112;-63
2022/10/17 08:05:23;;;;;;;18.25;12.05;;;;;;;;;;5069320;28;20065;-65
2022/10/17 08:07:49;;;;;;;15.55;11.95;;;;;;;;;;5068597;28;20040;-64
2022/10/17 08:10:15;;;;;;;19.20;11.57;;;;;;;;;;5066849;28;20422;-64
2022/10/17 08:12:41;;;;;;;16.73;10.70;;;;;;;;;;5067137;28;20060;-65
2022/10/17 08:15:08;;;;;;;16.63;10.75;;;;;;;;;;5066070;28;20463;-62
2022/10/17 08:17:35;;;;;;;18.13;11.10;;;;;;;;;;5068838;28;20049;-64
2022/10/17 08:20:01;;;;;;;17.00;10.20;;;;;;;;;;5068665;28;20044;-63
2022/10/17 08:22:27;;;;;;;15.88;10.85;;;;;;;;;;5069319;28;20311;-63
2022/10/17 08:24:53;;;;;;;20.65;10.20;;;;;;;;;;5069754;28;20123;-64
2022/10/17 08:27:27;;;;;;;16.08;10.10;;;;;;;;;;5067726;28;20487;-64
2022/10/17 08:29:53;;;;;;;16.85;10.25;;;;;;;;;;5068057;28;20055;-64
2022/10/17 08:32:20;;;;;;;15.13;10.63;;;;;;;;;;5069667;28;20705;-64
2022/10/17 08:34:46;;;;;;;14.88;9.95;;;;;;;;;;5068094;28;20037;-65
2022/10/17 08:37:12;;;;;;;19.63;10.77;;;;;;;;;;5068001;28;20473;-64
2022/10/17 08:39:39;;;;;;;16.23;10.00;;;;;;;;;;5064263;28;20118;-64
2022/10/17 08:42:05;;;;;;;12.70;9.52;;;;;;;;;;5068283;28;20036;-64
2022/10/17 08:44:49;;;;;;;15.38;9.30;;;;;;;;;;5069307;28;20044;-63
2022/10/17 08:47:24;;;;;;;16.10;9.73;;;;;;;;;;5067475;28;20036;-65
2022/10/17 08:49:58;;;;;;;16.95;9.88;;;;;;;;;;5068040;28;20044;-67
2022/10/17 08:52:24;;;;;;;17.83;9.63;;;;;;;;;;5068911;28;20047;-65
2022/10/17 08:54:51;;;;;;;12.90;9.82;;;;;;;;;;5068288;28;20502;-65
2022/10/17 08:57:17;;;;;;;15.75;9.98;;;;;;;;;;5067938;28;20372;-63
2022/10/17 08:59:44;;;;;;;15.10;10.23;;;;;;;;;;5068429;28;20467;-64
2022/10/17 09:02:33;;;;;;;17.90;10.52;;;;;;;;;;5069449;28;20040;-63
2022/10/17 09:05:19;;;;;;;12.73;9.02;;;;;;;;;;5069235;28;20032;-63
2022/10/17 09:07:56;;;;;;;15.20;10.05;;;;;;;;;;5068511;28;20158;-63
2022/10/17 09:10:32;;;;;;;13.48;9.55;;;;;;;;;;5056490;28;20128;-63
2022/10/17 09:13:17;;;;;;;15.75;10.55;;;;;;;;;;5067314;28;20128;-61
2022/10/17 09:15:52;;;;;;;18.63;11.02;;;;;;;;;;5068732;28;20402;-63
2022/10/17 09:18:23;;;;;;;14.43;9.90;;;;;;;;;;5068197;28;20641;-62
2022/10/17 09:20:51;;;;;;;15.43;9.75;;;;;;;;;;5064461;28;20039;-63
2022/10/17 09:23:26;;;;;;;14.02;9.73;;;;;;;;;;5063126;28;20116;-61
2022/10/17 09:25:57;;;;;;;13.65;9.75;;;;;;;;;;5067820;28;20051;-61
2022/10/17 09:28:27;;;;;;;15.60;9.07;;;;;;;;;;5068465;28;20131;-62
2022/10/17 09:31:03;;;;;;;22.35;10.13;;;;;;;;;;5069041;28;20128;-62
2022/10/17 09:33:33;;;;;;;13.43;9.80;;;;;;;;;;5068192;28;20051;-62
2022/10/17 09:35:59;;;;;;;15.88;9.00;;;;;;;;;;5068862;28;20037;-62
2022/10/17 09:38:29;;;;;;;13.13;8.73;;;;;;;;;;5068070;28;20029;-62
2022/10/17 09:40:56;;;;;;;15.07;10.40;;;;;;;;;;5068138;28;20117;-61
2022/10/17 09:43:23;;;;;;;16.20;10.43;;;;;;;;;;5063708;28;20123;-62
2022/10/17 09:46:08;;;;;;;17.75;10.25;;;;;;;;;;5066842;28;20056;-61
2022/10/17 09:48:37;;;;;;;18.30;10.30;;;;;;;;;;5066672;28;20077;-60
2022/10/17 09:51:05;;;;;;;22.88;11.35;;;;;;;;;;5065703;28;20035;-61
2022/10/17 09:53:34;;;;;;;15.02;11.48;;;;;;;;;;5066259;28;20812;-61
2022/10/17 09:56:02;;;;;;;17.17;11.70;;;;;;;;;;5065646;28;20040;-62
2022/10/17 09:58:41;;;;;;;21.15;12.30;;;;;;;;;;5063048;28;20028;-67
2022/10/17 10:01:19;;;;;;;16.42;12.77;;;;;;;;;;5063541;28;20114;-69
2022/10/17 10:03:45;;;;;;;19.10;12.25;;;;;;;;;;5064254;28;21104;-66
2022/10/17 10:06:16;;;;;;;20.10;12.85;;;;;;;;;;5068088;28;20101;-64
2022/10/17 10:08:57;;;;;;;21.40;13.63;;;;;;;;;;5065396;28;20056;-66
2022/10/17 10:11:43;;;;;;;22.48;13.52;;;;;;;;;;5068281;28;20101;-67
2022/10/17 10:14:19;;;;;;;24.65;14.25;;;;;;;;;;5066258;28;20048;-68
2022/10/17 10:16:46;;;;;;;24.60;14.05;;;;;;;;;;5068967;28;20039;-69
2022/10/17 10:19:31;;;;;;;24.65;14.50;;;;;;;;;;5069960;28;20048;-69
2022/10/17 10:22:01;;;;;;;24.30;14.70;;;;;;;;;;5071115;28;20382;-71
2022/10/17 10:24:28;;;;;;;22.40;14.00;;;;;;;;;;5066670;28;20447;-72
2022/10/17 10:26:55;;;;;;;26.58;14.82;;;;;;;;;;5097001;28;20040;-69
2022/10/17 10:29:30;;;;;;;22.40;13.98;;;;;;;;;;5070400;28;20048;-69
2022/10/17 10:32:17;;;;;;;27.35;14.70;;;;;;;;;;5071827;28;20040;-70
2022/10/17 10:34:52;;;;;;;25.92;15.48;;;;;;;;;;5059453;28;20086;-75
2022/10/17 10:37:37;;;;;;;26.83;14.65;;;;;;;;;;5069389;28;20387;-77
2022/10/17 10:40:15;;;;;;;25.83;15.10;;;;;;;;;;5067652;28;20124;-67
2022/10/17 10:42:41;;;;;;;25.02;14.40;;;;;;;;;;5067584;28;20037;-66
2022/10/17 10:45:13;;;;;;;32.72;15.75;;;;;;;;;;5073362;28;20133;-66
2022/10/17 10:47:49;;;;;;;29.00;14.45;;;;;;;;;;5070645;28;20147;-68
2022/10/17 10:50:17;;;;;;;29.33;16.45;;;;;;;;;;5062675;28;20123;-68
2022/10/17 10:52:51;;;;;;;28.05;15.23;;;;;;;;;;5070862;28;20043;-67
2022/10/17 10:55:17;;;;;;;24.52;14.30;;;;;;;;;;5068151;28;20044;-69
2022/10/17 10:57:44;;;;;;;30.00;15.65;;;;;;;;;;5071674;28;20128;-70
2022/10/17 11:00:19;;;;;;;26.45;14.57;;;;;;;;;;5073027;28;20063;-69
2022/10/17 11:02:48;;;;;;;29.77;15.45;;;;;;;;;;5070472;28;20109;-71
2022/10/17 11:05:20;;;;;;;28.05;15.80;;;;;;;;;;5071189;28;20044;-68
2022/10/17 11:08:01;;;;;;;32.78;16.70;;;;;;;;;;5070455;28;20491;-67
2022/10/17 11:10:33;;;;;;;34.63;17.03;;;;;;;;;;5075984;28;20402;-67
2022/10/17 11:13:14;;;;;;;31.77;16.88;;;;;;;;;;5068348;28;20044;-68
2022/10/17 11:15:40;;;;;;;30.13;16.73;;;;;;;;;;5071191;28;20111;-68
2022/10/17 11:18:08;;;;;;;39.67;17.55;;;;;;;;;;5070211;28;20883;-68
2022/10/17 11:20:51;;;;;;;31.77;16.73;;;;;;;;;;5070456;28;20398;-68
2022/10/17 11:23:20;;;;;;;;;;;;;;;;;;5073636;28;20475;-69
2022/10/17 11:25:47;;;;;;;35.97;17.77;;;;;;;;;;5065731;28;19923;-70
2022/10/17 11:28:15;;;;;;;32.08;17.00;;;;;;;;;;5068761;28;20047;-70
2022/10/17 11:30:46;;;;;;;35.15;18.50;;;;;;;;;;5071116;28;20037;-70
2022/10/17 11:33:15;;;;;;;36.53;18.75;;;;;;;;;;5070470;28;20047;-70
2022/10/17 11:35:44;;;;;;;37.55;19.15;;;;;;;;;;5069570;28;20064;-70
2022/10/17 11:38:29;;;;;;;31.65;17.00;;;;;;;;;;5068878;28;20040;-70
2022/10/17 11:40:57;;;;;;;32.92;16.65;;;;;;;;;;5069091;28;20391;-70
2022/10/17 11:43:27;;;;;;;33.38;17.70;;;;;;;;;;5070589;28;20059;-70
2022/10/17 11:45:59;;;;;;;31.65;18.42;;;;;;;;;;5070291;28;20040;-70
2022/10/17 11:48:30;;;;;;;26.15;15.75;;;;;;;;;;5068633;28;20040;-69
2022/10/17 11:51:12;;;;;;;25.10;15.77;;;;;;;;;;5071171;28;20051;-69
2022/10/17 11:53:38;;;;;;;;;;;;;;;;;;5069812;28;20036;-69
2022/10/17 11:56:05;;;;;;;24.13;14.43;;;;;;;;;;5069199;28;19930;-69
2022/10/17 11:59:03;;;;;;;26.85;14.20;;;;;;;;;;5065367;28;20037;-66
2022/10/17 12:01:35;;;;;;;25.35;14.32;;;;;;;;;;5065323;28;20121;-66
2022/10/17 12:04:04;;;;;;;33.45;16.75;;;;;;;;;;5067301;28;20074;-64
2022/10/17 12:06:49;;;;;;;26.45;15.32;;;;;;;;;;5068760;28;20085;-63
2022/10/17 12:09:21;;;;;;;23.55;13.75;;;;;;;;;;5066349;28;20048;-63
2022/10/17 12:11:55;;;;;;;20.08;13.32;;;;;;;;;;5069256;28;20068;-65
2022/10/17 12:14:33;;;;;;;23.38;13.65;;;;;;;;;;5062698;28;20037;-73
2022/10/17 12:17:00;;;;;;;23.83;13.82;;;;;;;;;;5065080;28;20072;-66
2022/10/17 12:19:29;;;;;;;25.40;14.27;;;;;;;;;;5070046;28;20049;-68
2022/10/17 12:21:57;;;;;;;18.38;12.55;;;;;;;;;;5068404;28;20040;-68
2022/10/17 12:24:28;;;;;;;27.15;14.13;;;;;;;;;;5069292;28;20608;-68
2022/10/17 12:26:54;;;;;;;16.27;11.77;;;;;;;;;;5068605;28;20080;-69
2022/10/17 12:29:26;;;;;;;21.45;12.52;;;;;;;;;;5067960;28;20101;-70
2022/10/17 12:31:52;;;;;;;19.42;11.75;;;;;;;;;;5074606;28;20051;-69
2022/10/17 12:34:22;;;;;;;21.80;13.63;;;;;;;;;;5063059;28;20226;-69
2022/10/17 12:36:48;;;;;;;21.80;12.50;;;;;;;;;;5061900;28;20040;-70
2022/10/17 12:39:16;;;;;;;19.63;12.23;;;;;;;;;;5062014;28;20052;-71
2022/10/17 12:41:43;;;;;;;19.70;11.43;;;;;;;;;;5055979;28;20043;-72
2022/10/17 12:44:13;;;;;;;20.65;12.30;;;;;;;;;;5065586;28;20302;-69
2022/10/17 12:46:42;;;;;;;17.65;11.52;;;;;;;;;;5064350;28;20043;-66
2022/10/17 12:49:21;;;;;;;19.20;12.43;;;;;;;;;;5064081;28;20079;-68
2022/10/17 12:52:06;;;;;;;18.05;11.85;;;;;;;;;;5067134;28;20036;-67
2022/10/17 12:54:37;;;;;;;20.23;12.30;;;;;;;;;;5065886;28;20036;-68
2022/10/17 12:57:13;;;;;;;19.48;12.00;;;;;;;;;;5068400;28;20064;-67
2022/10/17 12:59:43;;;;;;;23.23;13.10;;;;;;;;;;5067057;28;20063;-64
2022/10/17 13:02:13;;;;;;;14.32;10.80;;;;;;;;;;5063157;28;20398;-65
2022/10/17 13:04:40;;;;;;;13.85;9.75;;;;;;;;;;5066342;28;20036;-65
2022/10/17 13:07:12;;;;;;;14.82;10.93;;;;;;;;;;5060709;28;20071;-66
2022/10/17 13:09:42;;;;;;;19.75;11.55;;;;;;;;;;5062568;28;20040;-65
2022/10/17 13:12:12;;;;;;;17.48;10.70;;;;;;;;;;5066516;28;20060;-68
2022/10/17 13:14:40;;;;;;;14.02;9.00;;;;;;;;;;5063252;28;20087;-68
2022/10/17 13:17:06;;;;;;;16.77;10.38;;;;;;;;;;5063766;28;20443;-67
2022/10/17 13:19:43;;;;;;;22.80;10.75;;;;;;;;;;5064723;28;20033;-67
2022/10/17 13:22:12;;;;;;;7.45;6.57;;;;;;;;;;5063708;28;20110;-67
2022/10/17 13:24:39;;;;;;;8.95;6.30;;;;;;;;;;5066758;28;20058;-66
2022/10/17 13:27:20;;;;;;;5.00;4.50;;;;;;;;;;5063127;28;20359;-66
2022/10/17 13:29:46;;;;;;;6.13;3.60;;;;;;;;;;5061865;28;20044;-66
2022/10/17 13:32:14;;;;;;;6.72;3.83;;;;;;;;;;5059384;28;20499;-66
2022/10/17 13:34:43;;;;;;;7.53;4.05;;;;;;;;;;5066352;28;20362;-67
2022/10/17 13:37:13;;;;;;;10.13;4.15;;;;;;;;;;5068213;28;20498;-68
2022/10/17 13:39:41;;;;;;;9.07;4.20;;;;;;;;;;5067092;28;20094;-66
2022/10/17 13:42:22;;;;;;;5.50;4.30;;;;;;;;;;5065685;28;20036;-66
2022/10/17 13:44:48;;;;;;;7.87;4.70;;;;;;;;;;5069389;28;20040;-65
2022/10/17 13:47:22;;;;;;;7.68;4.53;;;;;;;;;;5072553;28;20052;-66
2022/10/17 13:49:48;;;;;;;9.95;4.55;;;;;;;;;;5070244;28;20450;-66
2022/10/17 13:52:18;;;;;;;7.78;4.75;;;;;;;;;;5074420;28;20047;-67
2022/10/17 13:54:46;;;;;;;11.23;5.35;;;;;;;;;;5068642;28;20442;-69
2022/10/17 13:57:21;;;;;;;9.50;5.00;;;;;;;;;;5069793;28;20041;-67
2022/10/17 13:59:49;;;;;;;11.18;5.28;;;;;;;;;;5063013;28;20040;-66
2022/10/17 14:02:26;;;;;;;7.20;4.43;;;;;;;;;;5071600;28;20125;-69
2022/10/17 14:05:07;;;;;;;10.27;4.80;;;;;;;;;;5071330;28;20119;-69
2022/10/17 14:07:39;;;;;;;7.97;3.42;;;;;;;;;;5072855;28;20056;-66
2022/10/17 14:10:06;;;;;;;8.25;3.40;;;;;;;;;;5073340;28;20482;-66
2022/10/17 14:12:32;;;;;;;4.78;3.78;;;;;;;;;;5072829;28;20063;-65
2022/10/17 14:15:01;;;;;;;5.28;3.60;;;;;;;;;;5073270;28;20482;-70
2022/10/17 14:17:28;;;;;;;11.88;3.95;;;;;;;;;;5072922;28;20040;-68
2022/10/17 14:20:02;;;;;;;4.97;3.40;;;;;;;;;;5073184;28;20036;-68
2022/10/17 14:22:28;;;;;;;4.80;3.13;;;;;;;;;;5072568;28;20047;-71
2022/10/17 14:24:54;;;;;;;7.13;3.47;;;;;;;;;;5071123;28;20029;-68
2022/10/17 14:27:29;;;;;;;5.10;2.80;;;;;;;;;;5071395;28;20098;-68
2022/10/17 14:29:59;;;;;;;6.38;3.45;;;;;;;;;;5072230;28;20111;-69
2022/10/17 14:32:26;;;;;;;6.43;3.42;;;;;;;;;;5073329;28;20473;-67
2022/10/17 14:34:53;;;;;;;5.38;3.08;;;;;;;;;;5073245;28;20048;-67
2022/10/17 14:37:19;;;;;;;4.60;3.20;;;;;;;;;;5072337;28;20451;-68